Terminal Aerodrome Forecast
Issued by NWS Sioux Falls, SD

Home | Current Version | Previous Version | Graphics & Text | Print | Product List | Glossary Off
Versions: 1 2 3 4 5 6 7 8 9 10 11 12 13 14 15 16 17 18 19

000
FTUS43 KFSD 252300 RRA
TAFFSD
TAF
KFSD 252341Z 2600/2624 31008KT P6SM SCT110
     FM260500 35004KT P6SM BKN100
     FM261000 04005KT P6SM SCT080 BKN250
     FM261600 09007KT P6SM SCT080 BKN250
     FM262100 11006KT P6SM BKN080=

USA.gov is the U.S. government's official web portal to all federal, state and local government web resources and services.